sensor_id;sensor_type;location;lat;lon;timestamp;temperature;humidity
56103;DHT22;41970;48.774;9.280;2023-09-19T00:01:42;18.90;99.90
56103;DHT22;41970;48.774;9.280;2023-09-19T00:04:11;18.70;99.90
56103;DHT22;41970;48.774;9.280;2023-09-19T00:06:38;18.60;99.90
56103;DHT22;41970;48.774;9.280;2023-09-19T00:09:04;18.50;99.90
56103;DHT22;41970;48.774;9.280;2023-09-19T00:11:30;18.30;99.90
56103;DHT22;41970;48.774;9.280;2023-09-19T00:13:57;18.20;99.90
56103;DHT22;41970;48.774;9.280;2023-09-19T00:16:25;18.20;99.90
56103;DHT22;41970;48.774;9.280;2023-09-19T00:18:51;18.10;99.90
56103;DHT22;41970;48.774;9.280;2023-09-19T00:21:18;18.00;99.90
56103;DHT22;41970;48.774;9.280;2023-09-19T00:23:45;18.10;99.90
56103;DHT22;41970;48.774;9.280;2023-09-19T00:26:10;18.10;99.90
56103;DHT22;41970;48.774;9.280;2023-09-19T00:28:36;18.10;99.90
56103;DHT22;41970;48.774;9.280;2023-09-19T00:31:02;18.20;99.90
56103;DHT22;41970;48.774;9.280;2023-09-19T00:33:28;18.10;99.90
56103;DHT22;41970;48.774;9.280;2023-09-19T00:35:56;18.20;99.90
56103;DHT22;41970;48.774;9.280;2023-09-19T00:38:23;18.30;99.90
56103;DHT22;41970;48.774;9.280;2023-09-19T00:40:53;18.30;99.90
56103;DHT22;41970;48.774;9.280;2023-09-19T00:43:20;18.40;99.90
56103;DHT22;41970;48.774;9.280;2023-09-19T00:45:49;18.40;99.90
56103;DHT22;41970;48.774;9.280;2023-09-19T00:48:16;18.30;99.90
56103;DHT22;41970;48.774;9.280;2023-09-19T00:50:43;18.30;99.90
56103;DHT22;41970;48.774;9.280;2023-09-19T00:53:09;18.20;99.90
56103;DHT22;41970;48.774;9.280;2023-09-19T00:55:39;18.20;99.90
56103;DHT22;41970;48.774;9.280;2023-09-19T00:58:05;18.20;99.90
56103;DHT22;41970;48.774;9.280;2023-09-19T01:00:33;18.10;99.90
56103;DHT22;41970;48.774;9.280;2023-09-19T01:03:00;18.10;99.90
56103;DHT22;41970;48.774;9.280;2023-09-19T01:05:29;18.10;99.90
56103;DHT22;41970;48.774;9.280;2023-09-19T01:07:57;18.20;99.90
56103;DHT22;41970;48.774;9.280;2023-09-19T01:10:24;18.10;99.90
56103;DHT22;41970;48.774;9.280;2023-09-19T01:13:13;18.10;99.90
56103;DHT22;41970;48.774;9.280;2023-09-19T01:21:26;18.30;99.90
56103;DHT22;41970;48.774;9.280;2023-09-19T01:29:41;18.50;99.90
56103;DHT22;41970;48.774;9.280;2023-09-19T01:32:10;18.40;99.90
56103;DHT22;41970;48.774;9.280;2023-09-19T01:34:46;18.40;99.90
56103;DHT22;41970;48.774;9.280;2023-09-19T01:37:16;18.40;99.90
56103;DHT22;41970;48.774;9.280;2023-09-19T01:40:17;18.50;99.90
56103;DHT22;41970;48.774;9.280;2023-09-19T01:47:54;18.70;99.90
56103;DHT22;41970;48.774;9.280;2023-09-19T01:53:41;18.90;99.90
56103;DHT22;41970;48.774;9.280;2023-09-19T01:56:15;19.00;99.90
56103;DHT22;41970;48.774;9.280;2023-09-19T01:58:46;18.90;99.90
56103;DHT22;41970;48.774;9.280;2023-09-19T02:01:19;19.00;99.90
56103;DHT22;41970;48.774;9.280;2023-09-19T02:03:46;18.90;99.90
56103;DHT22;41970;48.774;9.280;2023-09-19T02:06:16;19.00;99.90
56103;DHT22;41970;48.774;9.280;2023-09-19T02:08:43;18.90;99.90
56103;DHT22;41970;48.774;9.280;2023-09-19T02:11:10;18.90;99.90
56103;DHT22;41970;48.774;9.280;2023-09-19T02:13:36;18.80;99.90
56103;DHT22;41970;48.774;9.280;2023-09-19T02:16:03;19.00;99.90
56103;DHT22;41970;48.774;9.280;2023-09-19T02:18:30;18.90;99.90
56103;DHT22;41970;48.774;9.280;2023-09-19T02:20:56;19.00;99.90
56103;DHT22;41970;48.774;9.280;2023-09-19T02:23:24;18.90;99.90
56103;DHT22;41970;48.774;9.280;2023-09-19T02:25:54;18.90;99.90
56103;DHT22;41970;48.774;9.280;2023-09-19T02:28:20;19.00;99.90
56103;DHT22;41970;48.774;9.280;2023-09-19T02:30:49;19.10;99.90
56103;DHT22;41970;48.774;9.280;2023-09-19T02:33:15;19.10;99.90
56103;DHT22;41970;48.774;9.280;2023-09-19T02:35:42;19.10;99.90
56103;DHT22;41970;48.774;9.280;2023-09-19T02:38:08;19.00;99.90
56103;DHT22;41970;48.774;9.280;2023-09-19T02:40:37;19.10;99.90
56103;DHT22;41970;48.774;9.280;2023-09-19T02:43:03;19.10;99.90
56103;DHT22;41970;48.774;9.280;2023-09-19T02:45:29;19.10;99.90
56103;DHT22;41970;48.774;9.280;2023-09-19T02:47:55;19.20;99.90
56103;DHT22;41970;48.774;9.280;2023-09-19T02:50:22;19.10;99.90
56103;DHT22;41970;48.774;9.280;2023-09-19T02:52:48;19.10;99.90
56103;DHT22;41970;48.774;9.280;2023-09-19T02:55:16;19.10;99.90
56103;DHT22;41970;48.774;9.280;2023-09-19T02:57:48;19.10;99.90
56103;DHT22;41970;48.774;9.280;2023-09-19T03:00:15;19.10;99.90
56103;DHT22;41970;48.774;9.280;2023-09-19T03:02:41;19.00;99.90
56103;DHT22;41970;48.774;9.280;2023-09-19T03:05:08;19.00;99.90
56103;DHT22;41970;48.774;9.280;2023-09-19T03:07:37;18.90;99.90
56103;DHT22;41970;48.774;9.280;2023-09-19T03:10:05;18.80;99.90
56103;DHT22;41970;48.774;9.280;2023-09-19T03:12:31;18.70;99.90
56103;DHT22;41970;48.774;9.280;2023-09-19T03:14:57;18.70;99.90
56103;DHT22;41970;48.774;9.280;2023-09-19T03:17:23;18.50;99.90
56103;DHT22;41970;48.774;9.280;2023-09-19T03:19:48;18.40;99.90
56103;DHT22;41970;48.774;9.280;2023-09-19T03:22:15;18.50;99.90
56103;DHT22;41970;48.774;9.280;2023-09-19T03:24:41;18.40;99.90
56103;DHT22;41970;48.774;9.280;2023-09-19T03:27:09;18.40;99.90
56103;DHT22;41970;48.774;9.280;2023-09-19T03:29:35;18.50;99.90
56103;DHT22;41970;48.774;9.280;2023-09-19T03:32:01;18.50;99.90
56103;DHT22;41970;48.774;9.280;2023-09-19T03:34:27;18.60;99.90
56103;DHT22;41970;48.774;9.280;2023-09-19T03:36:53;18.70;99.90
56103;DHT22;41970;48.774;9.280;2023-09-19T03:39:18;18.70;99.90
56103;DHT22;41970;48.774;9.280;2023-09-19T03:41:44;18.70;99.90
56103;DHT22;41970;48.774;9.280;2023-09-19T03:44:10;18.80;99.90
56103;DHT22;41970;48.774;9.280;2023-09-19T03:46:36;18.80;99.90
56103;DHT22;41970;48.774;9.280;2023-09-19T03:49:02;18.90;99.90
56103;DHT22;41970;48.774;9.280;2023-09-19T03:51:28;18.90;99.90
56103;DHT22;41970;48.774;9.280;2023-09-19T03:53:54;18.90;99.90
56103;DHT22;41970;48.774;9.280;2023-09-19T03:56:19;18.80;99.90
56103;DHT22;41970;48.774;9.280;2023-09-19T03:58:45;18.80;99.90
56103;DHT22;41970;48.774;9.280;2023-09-19T04:01:11;18.80;99.90
56103;DHT22;41970;48.774;9.280;2023-09-19T04:03:38;18.80;99.90
56103;DHT22;41970;48.774;9.280;2023-09-19T04:06:16;18.90;99.90
56103;DHT22;41970;48.774;9.280;2023-09-19T04:08:42;18.80;99.90
56103;DHT22;41970;48.774;9.280;2023-09-19T04:11:09;18.80;99.90
56103;DHT22;41970;48.774;9.280;2023-09-19T04:13:35;18.80;99.90
56103;DHT22;41970;48.774;9.280;2023-09-19T04:16:02;18.90;99.90
56103;DHT22;41970;48.774;9.280;2023-09-19T04:18:29;18.90;99.90
56103;DHT22;41970;48.774;9.280;2023-09-19T04:20:58;18.90;99.90
56103;DHT22;41970;48.774;9.280;2023-09-19T04:23:24;19.00;99.90
56103;DHT22;41970;48.774;9.280;2023-09-19T04:25:50;19.00;99.90
56103;DHT22;41970;48.774;9.280;2023-09-19T04:28:16;19.00;99.90
56103;DHT22;41970;48.774;9.280;2023-09-19T04:30:42;19.00;99.90
56103;DHT22;41970;48.774;9.280;2023-09-19T04:33:08;19.00;99.90
56103;DHT22;41970;48.774;9.280;2023-09-19T04:35:34;18.90;99.90
56103;DHT22;41970;48.774;9.280;2023-09-19T04:38:00;18.90;99.90
56103;DHT22;41970;48.774;9.280;2023-09-19T04:40:26;18.80;99.90
56103;DHT22;41970;48.774;9.280;2023-09-19T04:42:56;18.80;99.90
56103;DHT22;41970;48.774;9.280;2023-09-19T04:45:23;18.70;99.90
56103;DHT22;41970;48.774;9.280;2023-09-19T04:47:48;18.60;99.90
56103;DHT22;41970;48.774;9.280;2023-09-19T04:50:14;18.50;99.90
56103;DHT22;41970;48.774;9.280;2023-09-19T04:52:41;18.30;99.90
56103;DHT22;41970;48.774;9.280;2023-09-19T04:55:14;18.20;99.90
56103;DHT22;41970;48.774;9.280;2023-09-19T04:57:46;18.10;99.90
56103;DHT22;41970;48.774;9.280;2023-09-19T05:00:17;18.00;99.90
56103;DHT22;41970;48.774;9.280;2023-09-19T05:02:45;18.10;99.90
56103;DHT22;41970;48.774;9.280;2023-09-19T05:05:11;18.20;99.90
56103;DHT22;41970;48.774;9.280;2023-09-19T05:07:40;18.30;99.90
56103;DHT22;41970;48.774;9.280;2023-09-19T05:10:07;18.50;99.90
56103;DHT22;41970;48.774;9.280;2023-09-19T05:12:36;18.50;99.90
56103;DHT22;41970;48.774;9.280;2023-09-19T05:15:03;18.60;99.90
56103;DHT22;41970;48.774;9.280;2023-09-19T05:17:29;18.60;99.90
56103;DHT22;41970;48.774;9.280;2023-09-19T05:19:55;18.70;99.90
56103;DHT22;41970;48.774;9.280;2023-09-19T05:22:21;18.70;99.90
56103;DHT22;41970;48.774;9.280;2023-09-19T05:24:46;18.80;99.90
56103;DHT22;41970;48.774;9.280;2023-09-19T05:27:14;18.80;99.90
56103;DHT22;41970;48.774;9.280;2023-09-19T05:29:43;18.70;99.90
56103;DHT22;41970;48.774;9.280;2023-09-19T05:32:08;18.40;99.90
56103;DHT22;41970;48.774;9.280;2023-09-19T05:34:35;18.40;99.90
56103;DHT22;41970;48.774;9.280;2023-09-19T05:37:01;18.50;99.90
56103;DHT22;41970;48.774;9.280;2023-09-19T05:39:27;18.40;99.90
56103;DHT22;41970;48.774;9.280;2023-09-19T05:41:52;18.50;99.90
56103;DHT22;41970;48.774;9.280;2023-09-19T05:44:18;18.50;99.90
56103;DHT22;41970;48.774;9.280;2023-09-19T05:46:44;18.70;99.90
56103;DHT22;41970;48.774;9.280;2023-09-19T05:49:13;18.70;99.90
56103;DHT22;41970;48.774;9.280;2023-09-19T05:51:39;18.80;99.90
56103;DHT22;41970;48.774;9.280;2023-09-19T05:54:05;18.80;99.90
56103;DHT22;41970;48.774;9.280;2023-09-19T05:56:31;18.90;99.90
56103;DHT22;41970;48.774;9.280;2023-09-19T05:58:56;18.80;99.90
56103;DHT22;41970;48.774;9.280;2023-09-19T06:01:22;18.70;99.90
56103;DHT22;41970;48.774;9.280;2023-09-19T06:03:48;18.60;99.90
56103;DHT22;41970;48.774;9.280;2023-09-19T06:06:14;18.50;99.90
56103;DHT22;41970;48.774;9.280;2023-09-19T06:08:40;18.30;99.90
56103;DHT22;41970;48.774;9.280;2023-09-19T06:11:05;18.20;99.90
56103;DHT22;41970;48.774;9.280;2023-09-19T06:13:34;18.10;99.90
56103;DHT22;41970;48.774;9.280;2023-09-19T06:16:01;17.90;99.90
56103;DHT22;41970;48.774;9.280;2023-09-19T06:18:31;17.80;99.90
56103;DHT22;41970;48.774;9.280;2023-09-19T06:20:59;17.80;99.90
56103;DHT22;41970;48.774;9.280;2023-09-19T06:23:25;17.90;99.90
56103;DHT22;41970;48.774;9.280;2023-09-19T06:25:52;17.80;99.90
56103;DHT22;41970;48.774;9.280;2023-09-19T06:28:19;17.70;99.90
56103;DHT22;41970;48.774;9.280;2023-09-19T06:30:49;17.70;99.90
56103;DHT22;41970;48.774;9.280;2023-09-19T06:33:15;17.60;99.90
56103;DHT22;41970;48.774;9.280;2023-09-19T06:35:41;17.70;99.90
56103;DHT22;41970;48.774;9.280;2023-09-19T06:38:07;17.70;99.90
56103;DHT22;41970;48.774;9.280;2023-09-19T06:40:36;17.70;99.90
56103;DHT22;41970;48.774;9.280;2023-09-19T06:43:02;17.60;99.90
56103;DHT22;41970;48.774;9.280;2023-09-19T06:45:28;17.70;99.90
56103;DHT22;41970;48.774;9.280;2023-09-19T06:47:54;17.60;99.90
56103;DHT22;41970;48.774;9.280;2023-09-19T06:50:23;17.70;99.90
56103;DHT22;41970;48.774;9.280;2023-09-19T06:52:50;17.70;99.90
56103;DHT22;41970;48.774;9.280;2023-09-19T06:55:21;17.70;99.90
56103;DHT22;41970;48.774;9.280;2023-09-19T06:57:49;17.80;99.90
56103;DHT22;41970;48.774;9.280;2023-09-19T07:00:16;17.90;99.90
56103;DHT22;41970;48.774;9.280;2023-09-19T07:02:59;17.90;99.90
56103;DHT22;41970;48.774;9.280;2023-09-19T07:05:30;17.90;99.90
56103;DHT22;41970;48.774;9.280;2023-09-19T07:08:00;18.00;99.90
56103;DHT22;41970;48.774;9.280;2023-09-19T07:10:29;18.00;99.90
56103;DHT22;41970;48.774;9.280;2023-09-19T07:13:03;18.10;99.90
56103;DHT22;41970;48.774;9.280;2023-09-19T07:15:31;18.20;99.90
56103;DHT22;41970;48.774;9.280;2023-09-19T07:17:59;18.20;99.90
56103;DHT22;41970;48.774;9.280;2023-09-19T07:20:26;18.30;99.90
56103;DHT22;41970;48.774;9.280;2023-09-19T07:22:53;18.40;99.90
56103;DHT22;41970;48.774;9.280;2023-09-19T07:25:20;18.50;99.90
56103;DHT22;41970;48.774;9.280;2023-09-19T07:27:47;18.60;99.90
56103;DHT22;41970;48.774;9.280;2023-09-19T07:30:13;18.60;99.90
56103;DHT22;41970;48.774;9.280;2023-09-19T07:32:40;18.70;99.90
56103;DHT22;41970;48.774;9.280;2023-09-19T07:35:06;18.70;99.90
56103;DHT22;41970;48.774;9.280;2023-09-19T07:37:32;18.80;99.90
56103;DHT22;41970;48.774;9.280;2023-09-19T07:40:03;18.90;99.90
56103;DHT22;41970;48.774;9.280;2023-09-19T07:42:36;19.00;99.90
56103;DHT22;41970;48.774;9.280;2023-09-19T07:45:04;19.00;99.90
56103;DHT22;41970;48.774;9.280;2023-09-19T07:47:30;19.10;99.90
56103;DHT22;41970;48.774;9.280;2023-09-19T07:49:58;19.10;99.90
56103;DHT22;41970;48.774;9.280;2023-09-19T07:52:24;19.30;99.90
56103;DHT22;41970;48.774;9.280;2023-09-19T07:54:50;19.20;99.90
56103;DHT22;41970;48.774;9.280;2023-09-19T07:57:16;19.30;99.90
56103;DHT22;41970;48.774;9.280;2023-09-19T07:59:42;19.60;99.90
56103;DHT22;41970;48.774;9.280;2023-09-19T08:02:09;19.90;99.90
56103;DHT22;41970;48.774;9.280;2023-09-19T08:04:42;20.00;99.90
56103;DHT22;41970;48.774;9.280;2023-09-19T08:07:08;20.20;99.90
56103;DHT22;41970;48.774;9.280;2023-09-19T08:09:34;20.30;99.90
56103;DHT22;41970;48.774;9.280;2023-09-19T08:12:01;20.40;99.90
56103;DHT22;41970;48.774;9.280;2023-09-19T08:14:28;20.60;99.90
56103;DHT22;41970;48.774;9.280;2023-09-19T08:16:58;20.60;99.90
56103;DHT22;41970;48.774;9.280;2023-09-19T08:19:24;20.70;99.90
56103;DHT22;41970;48.774;9.280;2023-09-19T08:21:55;20.80;99.90
56103;DHT22;41970;48.774;9.280;2023-09-19T08:24:27;21.00;99.90
56103;DHT22;41970;48.774;9.280;2023-09-19T08:26:54;21.30;99.90
56103;DHT22;41970;48.774;9.280;2023-09-19T08:29:22;21.70;99.90
56103;DHT22;41970;48.774;9.280;2023-09-19T08:31:54;22.00;99.90
56103;DHT22;41970;48.774;9.280;2023-09-19T08:34:20;22.30;99.90
56103;DHT22;41970;48.774;9.280;2023-09-19T08:36:46;22.40;99.90
56103;DHT22;41970;48.774;9.280;2023-09-19T08:39:13;22.60;99.90
56103;DHT22;41970;48.774;9.280;2023-09-19T08:41:40;22.80;99.90
56103;DHT22;41970;48.774;9.280;2023-09-19T08:44:05;22.90;99.90
56103;DHT22;41970;48.774;9.280;2023-09-19T08:46:34;22.90;99.90
56103;DHT22;41970;48.774;9.280;2023-09-19T08:51:33;22.70;99.90
56103;DHT22;41970;48.774;9.280;2023-09-19T08:54:08;22.60;99.90
56103;DHT22;41970;48.774;9.280;2023-09-19T08:56:39;22.50;99.90
56103;DHT22;41970;48.774;9.280;2023-09-19T08:59:06;22.20;99.90
56103;DHT22;41970;48.774;9.280;2023-09-19T09:01:35;22.10;99.90
56103;DHT22;41970;48.774;9.280;2023-09-19T09:04:02;22.00;99.90
56103;DHT22;41970;48.774;9.280;2023-09-19T09:06:28;21.90;99.90
56103;DHT22;41970;48.774;9.280;2023-09-19T09:08:55;21.90;99.90
56103;DHT22;41970;48.774;9.280;2023-09-19T09:11:21;21.90;99.90
56103;DHT22;41970;48.774;9.280;2023-09-19T09:13:48;22.20;99.90
56103;DHT22;41970;48.774;9.280;2023-09-19T09:16:14;22.40;99.90
56103;DHT22;41970;48.774;9.280;2023-09-19T09:18:47;22.70;99.90
56103;DHT22;41970;48.774;9.280;2023-09-19T09:21:20;22.90;99.90
56103;DHT22;41970;48.774;9.280;2023-09-19T09:23:47;22.90;99.90
56103;DHT22;41970;48.774;9.280;2023-09-19T09:26:14;22.90;99.90
56103;DHT22;41970;48.774;9.280;2023-09-19T09:28:45;22.90;99.90
56103;DHT22;41970;48.774;9.280;2023-09-19T09:31:24;22.70;99.90
56103;DHT22;41970;48.774;9.280;2023-09-19T09:33:56;22.70;99.90
56103;DHT22;41970;48.774;9.280;2023-09-19T09:36:37;22.40;99.90
56103;DHT22;41970;48.774;9.280;2023-09-19T09:39:04;22.10;99.90
56103;DHT22;41970;48.774;9.280;2023-09-19T09:41:50;22.00;99.90
56103;DHT22;41970;48.774;9.280;2023-09-19T09:44:17;21.70;99.90
56103;DHT22;41970;48.774;9.280;2023-09-19T09:46:47;21.60;99.90
56103;DHT22;41970;48.774;9.280;2023-09-19T09:49:24;21.50;99.90
56103;DHT22;41970;48.774;9.280;2023-09-19T09:52:03;21.60;99.90
56103;DHT22;41970;48.774;9.280;2023-09-19T09:54:33;21.50;99.90
56103;DHT22;41970;48.774;9.280;2023-09-19T09:57:10;21.50;99.90
56103;DHT22;41970;48.774;9.280;2023-09-19T09:59:57;21.40;99.90
56103;DHT22;41970;48.774;9.280;2023-09-19T10:02:46;21.30;99.90
56103;DHT22;41970;48.774;9.280;2023-09-19T10:05:32;21.20;99.90
56103;DHT22;41970;48.774;9.280;2023-09-19T10:08:12;21.30;99.90
56103;DHT22;41970;48.774;9.280;2023-09-19T10:10:39;21.20;99.60
56103;DHT22;41970;48.774;9.280;2023-09-19T10:13:12;21.40;99.30
56103;DHT22;41970;48.774;9.280;2023-09-19T10:15:43;21.40;98.30
56103;DHT22;41970;48.774;9.280;2023-09-19T10:18:14;21.40;98.80
56103;DHT22;41970;48.774;9.280;2023-09-19T10:20:45;21.50;98.20
56103;DHT22;41970;48.774;9.280;2023-09-19T10:23:12;21.50;99.00
56103;DHT22;41970;48.774;9.280;2023-09-19T10:25:42;21.50;99.00
56103;DHT22;41970;48.774;9.280;2023-09-19T10:28:11;21.50;98.10
56103;DHT22;41970;48.774;9.280;2023-09-19T10:30:44;21.60;97.90
56103;DHT22;41970;48.774;9.280;2023-09-19T10:33:14;21.60;98.10
56103;DHT22;41970;48.774;9.280;2023-09-19T10:35:48;21.70;97.50
56103;DHT22;41970;48.774;9.280;2023-09-19T10:38:17;21.60;97.50
56103;DHT22;41970;48.774;9.280;2023-09-19T10:40:44;21.60;97.90
56103;DHT22;41970;48.774;9.280;2023-09-19T10:43:16;21.60;98.30
56103;DHT22;41970;48.774;9.280;2023-09-19T10:45:46;21.60;98.70
56103;DHT22;41970;48.774;9.280;2023-09-19T10:48:16;21.50;98.30
56103;DHT22;41970;48.774;9.280;2023-09-19T10:50:58;21.60;98.80
56103;DHT22;41970;48.774;9.280;2023-09-19T10:54:32;21.60;98.10
56103;DHT22;41970;48.774;9.280;2023-09-19T10:56:38;21.60;98.50
56103;DHT22;41970;48.774;9.280;2023-09-19T10:59:16;21.50;98.70
56103;DHT22;41970;48.774;9.280;2023-09-19T11:01:54;21.40;99.50
56103;DHT22;41970;48.774;9.280;2023-09-19T11:04:26;21.40;97.30
56103;DHT22;41970;48.774;9.280;2023-09-19T11:09:50;21.50;98.70
56103;DHT22;41970;48.774;9.280;2023-09-19T11:15:03;21.50;97.80
56103;DHT22;41970;48.774;9.280;2023-09-19T11:17:40;21.60;97.80
56103;DHT22;41970;48.774;9.280;2023-09-19T11:28:28;21.60;98.10
56103;DHT22;41970;48.774;9.280;2023-09-19T11:30:56;21.60;97.80
56103;DHT22;41970;48.774;9.280;2023-09-19T11:36:11;21.60;97.60
56103;DHT22;41970;48.774;9.280;2023-09-19T11:46:33;21.70;97.10
56103;DHT22;41970;48.774;9.280;2023-09-19T11:49:06;21.80;97.70
56103;DHT22;41970;48.774;9.280;2023-09-19T11:51:42;21.60;98.10
56103;DHT22;41970;48.774;9.280;2023-09-19T11:54:13;21.60;96.80
56103;DHT22;41970;48.774;9.280;2023-09-19T11:56:49;21.60;97.10
56103;DHT22;41970;48.774;9.280;2023-09-19T12:01:55;21.80;97.20
56103;DHT22;41970;48.774;9.280;2023-09-19T12:04:44;21.90;97.10
56103;DHT22;41970;48.774;9.280;2023-09-19T12:07:14;22.00;96.00
56103;DHT22;41970;48.774;9.280;2023-09-19T12:09:42;21.90;96.20
56103;DHT22;41970;48.774;9.280;2023-09-19T12:12:26;22.00;97.00
56103;DHT22;41970;48.774;9.280;2023-09-19T12:15:01;21.90;96.50
56103;DHT22;41970;48.774;9.280;2023-09-19T12:17:36;21.90;96.70
56103;DHT22;41970;48.774;9.280;2023-09-19T12:20:02;21.90;96.60
56103;DHT22;41970;48.774;9.280;2023-09-19T12:22:47;21.90;96.00
56103;DHT22;41970;48.774;9.280;2023-09-19T12:25:15;22.00;96.70
56103;DHT22;41970;48.774;9.280;2023-09-19T12:27:43;22.00;97.30
56103;DHT22;41970;48.774;9.280;2023-09-19T12:30:13;22.10;96.70
56103;DHT22;41970;48.774;9.280;2023-09-19T12:32:40;22.00;96.10
56103;DHT22;41970;48.774;9.280;2023-09-19T12:35:09;22.20;96.30
56103;DHT22;41970;48.774;9.280;2023-09-19T12:37:43;22.20;96.50
56103;DHT22;41970;48.774;9.280;2023-09-19T12:40:14;22.30;96.00
56103;DHT22;41970;48.774;9.280;2023-09-19T12:42:54;22.30;96.40
56103;DHT22;41970;48.774;9.280;2023-09-19T12:45:29;22.40;96.70
56103;DHT22;41970;48.774;9.280;2023-09-19T12:51:10;22.80;96.20
56103;DHT22;41970;48.774;9.280;2023-09-19T12:53:42;22.80;95.50
56103;DHT22;41970;48.774;9.280;2023-09-19T12:56:10;22.80;95.30
56103;DHT22;41970;48.774;9.280;2023-09-19T12:58:53;22.80;95.10
56103;DHT22;41970;48.774;9.280;2023-09-19T13:01:26;22.90;94.70
56103;DHT22;41970;48.774;9.280;2023-09-19T13:04:14;23.00;95.10
56103;DHT22;41970;48.774;9.280;2023-09-19T13:06:44;23.10;94.90
56103;DHT22;41970;48.774;9.280;2023-09-19T13:09:11;23.10;94.90
56103;DHT22;41970;48.774;9.280;2023-09-19T13:11:38;23.20;94.60
56103;DHT22;41970;48.774;9.280;2023-09-19T13:14:26;23.10;95.10
56103;DHT22;41970;48.774;9.280;2023-09-19T13:17:04;23.00;95.40
56103;DHT22;41970;48.774;9.280;2023-09-19T13:22:45;23.10;94.70
56103;DHT22;41970;48.774;9.280;2023-09-19T13:25:24;23.10;94.60
56103;DHT22;41970;48.774;9.280;2023-09-19T13:27:51;23.20;95.20
56103;DHT22;41970;48.774;9.280;2023-09-19T13:30:20;23.10;94.30
56103;DHT22;41970;48.774;9.280;2023-09-19T13:32:45;23.10;94.50
56103;DHT22;41970;48.774;9.280;2023-09-19T13:35:13;23.20;94.70
56103;DHT22;41970;48.774;9.280;2023-09-19T13:37:40;23.20;95.00
56103;DHT22;41970;48.774;9.280;2023-09-19T13:40:14;23.20;95.10
56103;DHT22;41970;48.774;9.280;2023-09-19T13:42:41;23.30;95.60
56103;DHT22;41970;48.774;9.280;2023-09-19T13:45:07;23.30;95.10
56103;DHT22;41970;48.774;9.280;2023-09-19T13:47:35;23.30;95.40
56103;DHT22;41970;48.774;9.280;2023-09-19T13:50:03;23.20;94.60
56103;DHT22;41970;48.774;9.280;2023-09-19T13:52:31;23.30;94.20
56103;DHT22;41970;48.774;9.280;2023-09-19T13:54:57;23.40;94.20
56103;DHT22;41970;48.774;9.280;2023-09-19T13:57:24;23.50;93.60
56103;DHT22;41970;48.774;9.280;2023-09-19T13:59:51;23.60;94.00
56103;DHT22;41970;48.774;9.280;2023-09-19T14:02:17;23.70;93.20
56103;DHT22;41970;48.774;9.280;2023-09-19T14:04:48;23.70;93.20
56103;DHT22;41970;48.774;9.280;2023-09-19T14:07:15;23.60;94.10
56103;DHT22;41970;48.774;9.280;2023-09-19T14:09:41;23.70;93.50
56103;DHT22;41970;48.774;9.280;2023-09-19T14:12:08;23.80;93.90
56103;DHT22;41970;48.774;9.280;2023-09-19T14:14:34;23.90;93.20
56103;DHT22;41970;48.774;9.280;2023-09-19T14:17:00;23.80;93.40
56103;DHT22;41970;48.774;9.280;2023-09-19T14:19:27;23.90;93.40
56103;DHT22;41970;48.774;9.280;2023-09-19T14:21:53;23.90;92.80
56103;DHT22;41970;48.774;9.280;2023-09-19T14:24:22;23.90;92.70
56103;DHT22;41970;48.774;9.280;2023-09-19T14:26:48;23.70;92.90
56103;DHT22;41970;48.774;9.280;2023-09-19T14:29:15;23.70;92.30
56103;DHT22;41970;48.774;9.280;2023-09-19T14:31:41;23.70;91.70
56103;DHT22;41970;48.774;9.280;2023-09-19T14:34:07;23.70;92.00
56103;DHT22;41970;48.774;9.280;2023-09-19T14:36:35;23.50;92.20
56103;DHT22;41970;48.774;9.280;2023-09-19T14:39:01;23.50;92.50
56103;DHT22;41970;48.774;9.280;2023-09-19T14:41:27;23.50;92.70
56103;DHT22;41970;48.774;9.280;2023-09-19T14:43:53;23.50;92.60
56103;DHT22;41970;48.774;9.280;2023-09-19T14:46:20;23.40;92.80
56103;DHT22;41970;48.774;9.280;2023-09-19T14:48:46;23.40;92.60
56103;DHT22;41970;48.774;9.280;2023-09-19T14:51:16;23.40;92.90
56103;DHT22;41970;48.774;9.280;2023-09-19T14:53:44;23.40;92.60
56103;DHT22;41970;48.774;9.280;2023-09-19T14:56:10;23.40;92.70
56103;DHT22;41970;48.774;9.280;2023-09-19T14:58:37;23.50;92.50
56103;DHT22;41970;48.774;9.280;2023-09-19T15:01:08;23.50;92.90
56103;DHT22;41970;48.774;9.280;2023-09-19T15:03:34;23.50;92.50
56103;DHT22;41970;48.774;9.280;2023-09-19T15:06:05;23.50;92.30
56103;DHT22;41970;48.774;9.280;2023-09-19T15:08:36;23.60;93.10
56103;DHT22;41970;48.774;9.280;2023-09-19T15:11:07;23.60;93.40
56103;DHT22;41970;48.774;9.280;2023-09-19T15:13:33;23.50;92.30
56103;DHT22;41970;48.774;9.280;2023-09-19T15:16:00;23.60;92.70
56103;DHT22;41970;48.774;9.280;2023-09-19T15:18:27;23.60;93.10
56103;DHT22;41970;48.774;9.280;2023-09-19T15:20:53;23.60;92.50
56103;DHT22;41970;48.774;9.280;2023-09-19T15:23:20;23.60;92.00
56103;DHT22;41970;48.774;9.280;2023-09-19T15:25:52;23.60;91.60
56103;DHT22;41970;48.774;9.280;2023-09-19T15:28:18;23.60;91.50
56103;DHT22;41970;48.774;9.280;2023-09-19T15:30:45;23.60;92.50
56103;DHT22;41970;48.774;9.280;2023-09-19T15:33:11;23.40;92.30
56103;DHT22;41970;48.774;9.280;2023-09-19T15:35:37;23.30;91.80
56103;DHT22;41970;48.774;9.280;2023-09-19T15:38:03;23.30;91.80
56103;DHT22;41970;48.774;9.280;2023-09-19T15:40:29;23.30;91.70
56103;DHT22;41970;48.774;9.280;2023-09-19T15:42:55;23.40;91.70
56103;DHT22;41970;48.774;9.280;2023-09-19T15:45:24;23.40;91.70
56103;DHT22;41970;48.774;9.280;2023-09-19T15:47:51;23.40;91.90
56103;DHT22;41970;48.774;9.280;2023-09-19T15:50:17;23.40;92.30
56103;DHT22;41970;48.774;9.280;2023-09-19T15:52:43;23.40;91.90
56103;DHT22;41970;48.774;9.280;2023-09-19T15:55:09;23.30;91.50
56103;DHT22;41970;48.774;9.280;2023-09-19T15:57:38;23.40;91.50
56103;DHT22;41970;48.774;9.280;2023-09-19T16:00:06;23.40;92.10
56103;DHT22;41970;48.774;9.280;2023-09-19T16:02:38;23.40;92.30
56103;DHT22;41970;48.774;9.280;2023-09-19T16:08:25;23.40;92.70
56103;DHT22;41970;48.774;9.280;2023-09-19T16:10:52;23.50;92.80
56103;DHT22;41970;48.774;9.280;2023-09-19T16:13:18;23.50;92.80
56103;DHT22;41970;48.774;9.280;2023-09-19T16:15:44;23.50;93.10
56103;DHT22;41970;48.774;9.280;2023-09-19T16:18:09;23.50;93.20
56103;DHT22;41970;48.774;9.280;2023-09-19T16:20:35;23.50;92.90
56103;DHT22;41970;48.774;9.280;2023-09-19T16:23:05;23.50;92.50
56103;DHT22;41970;48.774;9.280;2023-09-19T16:25:30;23.30;92.70
56103;DHT22;41970;48.774;9.280;2023-09-19T16:27:57;23.40;92.50
56103;DHT22;41970;48.774;9.280;2023-09-19T16:30:23;23.40;92.80
56103;DHT22;41970;48.774;9.280;2023-09-19T16:32:49;23.40;92.50
56103;DHT22;41970;48.774;9.280;2023-09-19T16:35:14;23.40;92.90
56103;DHT22;41970;48.774;9.280;2023-09-19T16:37:41;23.40;92.80
56103;DHT22;41970;48.774;9.280;2023-09-19T16:40:07;23.40;92.50